MST,Max TemperatureF,Mean TemperatureF,Min TemperatureF,Max Dew PointF,MeanDew PointF,Min DewpointF,Max Humidity, Mean Humidity, Min Humidity, Max Sea Level PressureIn, Mean Sea Level PressureIn, Min Sea Level PressureIn, Max VisibilityMiles, Mean VisibilityMiles, Min VisibilityMiles, Max Wind SpeedMPH, Mean Wind SpeedMPH, Max Gust SpeedMPH,PrecipitationIn, CloudCover, Events, WindDirDegrees
2013-10-1,96,82,68,44,35,28,33,22,10,29.90,29.82,29.76,10,10,10,10,6,16,0.00,0,,126
2013-10-2,95,82,69,45,43,40,38,27,16,29.88,29.80,29.73,10,10,10,12,7,,0.00,0,,83
2013-10-3,94,82,69,48,42,31,41,26,11,29.81,29.71,29.62,10,10,10,18,8,21,0.00,0,,214
2013-10-4,89,79,68,48,28,1,47,26,4,29.94,29.83,29.72,10,10,10,20,8,27,0.00,0,,256
2013-10-5,86,76,66,22,15,8,17,12,6,30.12,30.03,29.97,10,10,10,16,7,19,0.00,0,,343
2013-10-6,93,77,61,31,22,14,25,16,6,30.08,29.99,29.91,10,10,10,17,6,21,0.00,0,,149
2013-10-7,97,82,66,36,25,18,26,16,6,29.94,29.86,29.78,10,10,10,17,4,21,0.00,5,,115
2013-10-8,94,81,67,36,31,27,28,19,10,29.82,29.73,29.65,10,10,10,17,6,20,0.00,1,,139
2013-10-9,88,78,68,48,37,30,38,28,18,29.69,29.64,29.58,10,10,10,25,13,37,0.00,4,,183
2013-10-10,72,64,56,49,40,34,72,49,26,29.93,29.86,29.68,10,10,10,25,9,30,T,4,,289
2013-10-11,79,68,57,40,36,31,51,34,17,29.98,29.91,29.86,10,10,10,8,2,14,0.00,0,,213
2013-10-12,87,74,60,40,36,33,42,29,15,29.91,29.85,29.79,10,10,10,14,5,22,0.00,0,,159
2013-10-13,86,74,62,42,37,32,46,31,16,29.90,29.85,29.80,10,10,10,14,6,17,0.00,0,,152
2013-10-14,84,73,62,45,37,27,46,30,13,29.99,29.91,29.86,10,10,10,13,5,21,0.00,0,,257
2013-10-15,84,72,60,35,29,22,39,25,11,29.91,29.86,29.81,10,10,10,16,6,19,0.00,0,,200
2013-10-16,83,71,58,33,28,22,36,25,13,30.03,29.95,29.88,10,10,10,12,5,13,0.00,0,,162
2013-10-17,83,71,58,35,30,24,39,26,12,30.01,29.92,29.84,10,10,10,10,5,14,0.00,0,,172
2013-10-18,86,72,58,35,29,21,40,25,10,29.97,29.90,29.86,10,10,10,13,5,18,0.00,0,,133
2013-10-19,88,73,58,31,24,13,36,21,6,30.00,29.92,29.85,10,10,10,9,4,13,0.00,0,,116
2013-10-20,86,73,60,31,24,17,28,18,8,29.91,29.84,29.77,10,10,10,12,6,14,0.00,0,,129
2013-10-21,88,74,59,30,25,17,29,18,7,29.94,29.88,29.83,10,10,10,12,5,13,0.00,0,,129
2013-10-22,94,77,59,31,26,18,32,20,7,29.99,29.90,29.82,10,10,10,12,4,14,0.00,0,,79
2013-10-23,95,80,64,36,28,23,23,16,8,29.88,29.80,29.74,10,10,10,12,4,15,0.00,2,,117
2013-10-24,93,80,66,38,28,22,32,20,8,29.89,29.84,29.78,10,10,10,15,5,20,0.00,4,,98
2013-10-25,89,76,62,35,28,22,32,20,8,30.01,29.95,29.90,10,10,10,12,5,14,0.00,0,,121
2013-10-26,91,77,62,40,34,30,34,23,12,30.06,29.97,29.90,10,10,10,10,3,13,0.00,3,,133
2013-10-27,91,78,64,39,33,26,37,24,11,29.89,29.78,29.68,10,10,10,15,6,19,0.00,4,,143
2013-10-28,86,75,64,44,37,30,37,27,16,29.78,29.73,29.68,10,10,10,25,9,32,0.00,3,,165
2013-10-29,74,68,61,44,39,36,51,39,27,29.88,29.84,29.80,10,10,10,28,8,31,0.00,3,,262
2013-10-30,74,65,55,40,34,30,55,38,20,29.99,29.93,29.86,10,10,10,16,6,19,0.00,1,,251
2013-10-31,76,65,53,35,30,25,47,31,15,30.09,30.02,29.96,10,10,10,10,5,17,0.00,0,,128